sensor_id;sensor_type;location;lat;lon;timestamp;P1;durP1;ratioP1;P2;durP2;ratioP2
36923;SDS011;22841;50.252;18.688;2023-10-08T00:00:43;12.13;;;4.47;;
36923;SDS011;22841;50.252;18.688;2023-10-08T00:03:21;8.45;;;4.28;;
36923;SDS011;22841;50.252;18.688;2023-10-08T00:05:47;6.80;;;3.35;;
36923;SDS011;22841;50.252;18.688;2023-10-08T00:08:17;4.13;;;2.97;;
36923;SDS011;22841;50.252;18.688;2023-10-08T00:10:43;6.00;;;2.40;;
36923;SDS011;22841;50.252;18.688;2023-10-08T00:13:10;3.75;;;2.30;;
36923;SDS011;22841;50.252;18.688;2023-10-08T00:15:38;3.33;;;1.83;;
36923;SDS011;22841;50.252;18.688;2023-10-08T00:18:20;3.55;;;1.67;;
36923;SDS011;22841;50.252;18.688;2023-10-08T00:20:51;0.95;;;0.88;;
36923;SDS011;22841;50.252;18.688;2023-10-08T00:23:23;1.63;;;0.95;;
36923;SDS011;22841;50.252;18.688;2023-10-08T00:25:51;0.70;;;0.70;;
36923;SDS011;22841;50.252;18.688;2023-10-08T00:28:20;1.02;;;0.73;;
36923;SDS011;22841;50.252;18.688;2023-10-08T00:30:47;0.93;;;0.82;;
36923;SDS011;22841;50.252;18.688;2023-10-08T00:33:19;1.00;;;0.57;;
36923;SDS011;22841;50.252;18.688;2023-10-08T00:35:45;0.47;;;0.40;;
36923;SDS011;22841;50.252;18.688;2023-10-08T00:38:11;0.55;;;0.50;;
36923;SDS011;22841;50.252;18.688;2023-10-08T00:40:41;0.50;;;0.50;;
36923;SDS011;22841;50.252;18.688;2023-10-08T00:43:28;0.40;;;0.38;;
36923;SDS011;22841;50.252;18.688;2023-10-08T00:45:57;0.60;;;0.40;;
36923;SDS011;22841;50.252;18.688;2023-10-08T00:48:25;0.43;;;0.30;;
36923;SDS011;22841;50.252;18.688;2023-10-08T00:53:36;0.32;;;0.30;;
36923;SDS011;22841;50.252;18.688;2023-10-08T00:56:06;0.20;;;0.20;;
36923;SDS011;22841;50.252;18.688;2023-10-08T00:58:42;0.60;;;0.40;;
36923;SDS011;22841;50.252;18.688;2023-10-08T01:01:18;0.85;;;0.85;;
36923;SDS011;22841;50.252;18.688;2023-10-08T01:03:47;1.50;;;0.50;;
36923;SDS011;22841;50.252;18.688;2023-10-08T01:06:16;1.55;;;0.50;;
36923;SDS011;22841;50.252;18.688;2023-10-08T01:08:46;0.50;;;0.50;;
36923;SDS011;22841;50.252;18.688;2023-10-08T01:11:18;0.32;;;0.32;;
36923;SDS011;22841;50.252;18.688;2023-10-08T01:13:51;4.95;;;0.50;;
36923;SDS011;22841;50.252;18.688;2023-10-08T01:16:20;0.50;;;0.50;;
36923;SDS011;22841;50.252;18.688;2023-10-08T01:18:46;0.57;;;0.47;;
36923;SDS011;22841;50.252;18.688;2023-10-08T01:21:16;0.93;;;0.50;;
36923;SDS011;22841;50.252;18.688;2023-10-08T01:23:55;2.05;;;0.50;;
36923;SDS011;22841;50.252;18.688;2023-10-08T01:26:21;0.82;;;0.60;;
36923;SDS011;22841;50.252;18.688;2023-10-08T01:28:48;3.03;;;0.85;;
36923;SDS011;22841;50.252;18.688;2023-10-08T01:31:14;1.13;;;0.60;;
36923;SDS011;22841;50.252;18.688;2023-10-08T01:33:40;1.20;;;0.50;;
36923;SDS011;22841;50.252;18.688;2023-10-08T01:36:15;0.60;;;0.60;;
36923;SDS011;22841;50.252;18.688;2023-10-08T01:38:41;1.10;;;0.30;;
36923;SDS011;22841;50.252;18.688;2023-10-08T01:41:08;2.85;;;0.40;;
36923;SDS011;22841;50.252;18.688;2023-10-08T01:43:56;0.30;;;0.30;;
36923;SDS011;22841;50.252;18.688;2023-10-08T01:46:25;0.45;;;0.40;;
36923;SDS011;22841;50.252;18.688;2023-10-08T01:48:52;0.43;;;0.30;;
36923;SDS011;22841;50.252;18.688;2023-10-08T01:51:25;4.20;;;0.60;;
36923;SDS011;22841;50.252;18.688;2023-10-08T01:54:02;0.40;;;0.30;;
36923;SDS011;22841;50.252;18.688;2023-10-08T01:56:29;0.30;;;0.30;;
36923;SDS011;22841;50.252;18.688;2023-10-08T01:58:55;1.25;;;0.32;;
36923;SDS011;22841;50.252;18.688;2023-10-08T02:01:21;0.30;;;0.30;;
36923;SDS011;22841;50.252;18.688;2023-10-08T02:03:47;0.65;;;0.38;;
36923;SDS011;22841;50.252;18.688;2023-10-08T02:06:14;0.38;;;0.38;;
36923;SDS011;22841;50.252;18.688;2023-10-08T02:08:40;0.38;;;0.38;;
36923;SDS011;22841;50.252;18.688;2023-10-08T02:11:06;1.02;;;0.60;;
36923;SDS011;22841;50.252;18.688;2023-10-08T02:13:34;0.50;;;0.50;;
36923;SDS011;22841;50.252;18.688;2023-10-08T02:16:00;0.50;;;0.50;;
36923;SDS011;22841;50.252;18.688;2023-10-08T02:18:27;2.30;;;0.50;;
36923;SDS011;22841;50.252;18.688;2023-10-08T02:20:54;0.60;;;0.40;;
36923;SDS011;22841;50.252;18.688;2023-10-08T02:23:20;2.47;;;0.60;;
36923;SDS011;22841;50.252;18.688;2023-10-08T02:25:47;0.50;;;0.50;;
36923;SDS011;22841;50.252;18.688;2023-10-08T02:28:13;0.40;;;0.40;;
36923;SDS011;22841;50.252;18.688;2023-10-08T02:30:41;0.60;;;0.35;;
36923;SDS011;22841;50.252;18.688;2023-10-08T02:33:08;0.57;;;0.30;;
36923;SDS011;22841;50.252;18.688;2023-10-08T02:35:44;3.45;;;0.40;;
36923;SDS011;22841;50.252;18.688;2023-10-08T02:38:12;1.25;;;0.40;;
36923;SDS011;22841;50.252;18.688;2023-10-08T02:40:42;0.20;;;0.20;;
36923;SDS011;22841;50.252;18.688;2023-10-08T02:43:13;2.75;;;0.20;;
36923;SDS011;22841;50.252;18.688;2023-10-08T02:45:41;1.63;;;0.30;;
36923;SDS011;22841;50.252;18.688;2023-10-08T02:48:10;0.20;;;0.20;;
36923;SDS011;22841;50.252;18.688;2023-10-08T02:50:39;1.42;;;0.22;;
36923;SDS011;22841;50.252;18.688;2023-10-08T02:53:06;0.60;;;0.28;;
36923;SDS011;22841;50.252;18.688;2023-10-08T02:55:43;0.95;;;0.22;;
36923;SDS011;22841;50.252;18.688;2023-10-08T02:58:12;0.32;;;0.28;;
36923;SDS011;22841;50.252;18.688;2023-10-08T03:00:45;0.65;;;0.43;;
36923;SDS011;22841;50.252;18.688;2023-10-08T03:03:12;0.20;;;0.20;;
36923;SDS011;22841;50.252;18.688;2023-10-08T03:05:47;0.30;;;0.20;;
36923;SDS011;22841;50.252;18.688;2023-10-08T03:08:15;0.50;;;0.30;;
36923;SDS011;22841;50.252;18.688;2023-10-08T03:10:52;0.35;;;0.35;;
36923;SDS011;22841;50.252;18.688;2023-10-08T03:13:23;2.45;;;0.30;;
36923;SDS011;22841;50.252;18.688;2023-10-08T03:15:49;0.15;;;0.15;;
36923;SDS011;22841;50.252;18.688;2023-10-08T03:18:24;5.50;;;0.60;;
36923;SDS011;22841;50.252;18.688;2023-10-08T03:20:50;1.27;;;0.63;;
36923;SDS011;22841;50.252;18.688;2023-10-08T03:23:16;3.95;;;0.45;;
36923;SDS011;22841;50.252;18.688;2023-10-08T03:25:54;3.15;;;0.30;;
36923;SDS011;22841;50.252;18.688;2023-10-08T03:28:24;2.22;;;0.40;;
36923;SDS011;22841;50.252;18.688;2023-10-08T03:30:51;0.38;;;0.38;;
36923;SDS011;22841;50.252;18.688;2023-10-08T03:33:21;2.35;;;0.30;;
36923;SDS011;22841;50.252;18.688;2023-10-08T03:35:48;0.50;;;0.50;;
36923;SDS011;22841;50.252;18.688;2023-10-08T03:38:21;0.50;;;0.50;;
36923;SDS011;22841;50.252;18.688;2023-10-08T03:40:54;1.00;;;0.50;;
36923;SDS011;22841;50.252;18.688;2023-10-08T03:43:31;0.25;;;0.25;;
36923;SDS011;22841;50.252;18.688;2023-10-08T03:46:08;0.30;;;0.30;;
36923;SDS011;22841;50.252;18.688;2023-10-08T03:48:43;1.23;;;0.47;;
36923;SDS011;22841;50.252;18.688;2023-10-08T03:51:11;0.95;;;0.30;;
36923;SDS011;22841;50.252;18.688;2023-10-08T03:53:41;1.85;;;1.02;;
36923;SDS011;22841;50.252;18.688;2023-10-08T03:56:41;3.55;;;0.52;;
36923;SDS011;22841;50.252;18.688;2023-10-08T03:59:14;1.00;;;0.40;;
36923;SDS011;22841;50.252;18.688;2023-10-08T04:02:00;1.15;;;0.47;;
36923;SDS011;22841;50.252;18.688;2023-10-08T04:04:42;4.10;;;0.63;;
36923;SDS011;22841;50.252;18.688;2023-10-08T04:07:23;2.15;;;0.63;;
36923;SDS011;22841;50.252;18.688;2023-10-08T04:09:50;3.88;;;0.82;;
36923;SDS011;22841;50.252;18.688;2023-10-08T04:12:30;3.05;;;0.70;;
36923;SDS011;22841;50.252;18.688;2023-10-08T04:15:03;4.00;;;1.00;;
36923;SDS011;22841;50.252;18.688;2023-10-08T04:17:33;2.78;;;0.65;;
36923;SDS011;22841;50.252;18.688;2023-10-08T04:20:10;3.70;;;1.10;;
36923;SDS011;22841;50.252;18.688;2023-10-08T04:22:55;8.40;;;1.00;;
36923;SDS011;22841;50.252;18.688;2023-10-08T04:25:28;5.03;;;0.90;;
36923;SDS011;22841;50.252;18.688;2023-10-08T04:27:55;2.35;;;1.33;;
36923;SDS011;22841;50.252;18.688;2023-10-08T04:30:34;3.53;;;1.25;;
36923;SDS011;22841;50.252;18.688;2023-10-08T04:33:05;5.57;;;1.20;;
36923;SDS011;22841;50.252;18.688;2023-10-08T04:35:38;5.85;;;0.98;;
36923;SDS011;22841;50.252;18.688;2023-10-08T04:38:18;7.82;;;1.15;;
36923;SDS011;22841;50.252;18.688;2023-10-08T04:40:54;2.72;;;1.30;;
36923;SDS011;22841;50.252;18.688;2023-10-08T04:43:26;2.53;;;0.90;;
36923;SDS011;22841;50.252;18.688;2023-10-08T04:45:56;3.38;;;1.00;;
36923;SDS011;22841;50.252;18.688;2023-10-08T04:48:26;2.05;;;1.05;;
36923;SDS011;22841;50.252;18.688;2023-10-08T04:50:58;4.78;;;1.05;;
36923;SDS011;22841;50.252;18.688;2023-10-08T04:53:28;3.38;;;1.08;;
36923;SDS011;22841;50.252;18.688;2023-10-08T04:56:03;4.32;;;1.20;;
36923;SDS011;22841;50.252;18.688;2023-10-08T04:58:32;2.30;;;0.90;;
36923;SDS011;22841;50.252;18.688;2023-10-08T05:01:02;3.92;;;1.17;;
36923;SDS011;22841;50.252;18.688;2023-10-08T05:03:53;2.17;;;0.90;;
36923;SDS011;22841;50.252;18.688;2023-10-08T05:06:26;5.90;;;1.23;;
36923;SDS011;22841;50.252;18.688;2023-10-08T05:09:03;2.53;;;0.98;;
36923;SDS011;22841;50.252;18.688;2023-10-08T05:11:49;3.40;;;1.10;;
36923;SDS011;22841;50.252;18.688;2023-10-08T05:14:20;5.53;;;1.60;;
36923;SDS011;22841;50.252;18.688;2023-10-08T05:16:59;0.98;;;0.90;;
36923;SDS011;22841;50.252;18.688;2023-10-08T05:19:29;5.15;;;1.25;;
36923;SDS011;22841;50.252;18.688;2023-10-08T05:22:21;2.20;;;1.20;;
36923;SDS011;22841;50.252;18.688;2023-10-08T05:24:54;4.00;;;1.10;;
36923;SDS011;22841;50.252;18.688;2023-10-08T05:27:41;3.70;;;1.08;;
36923;SDS011;22841;50.252;18.688;2023-10-08T05:33:03;5.22;;;1.27;;
36923;SDS011;22841;50.252;18.688;2023-10-08T05:35:42;6.35;;;1.70;;
36923;SDS011;22841;50.252;18.688;2023-10-08T05:38:10;1.17;;;0.82;;
36923;SDS011;22841;50.252;18.688;2023-10-08T05:41:09;2.40;;;1.10;;
36923;SDS011;22841;50.252;18.688;2023-10-08T05:43:53;2.90;;;1.17;;
36923;SDS011;22841;50.252;18.688;2023-10-08T05:46:40;2.42;;;1.17;;
36923;SDS011;22841;50.252;18.688;2023-10-08T05:49:14;5.00;;;1.27;;
36923;SDS011;22841;50.252;18.688;2023-10-08T05:51:51;1.73;;;1.10;;
36923;SDS011;22841;50.252;18.688;2023-10-08T05:54:21;4.50;;;1.30;;
36923;SDS011;22841;50.252;18.688;2023-10-08T05:57:10;8.10;;;1.60;;
36923;SDS011;22841;50.252;18.688;2023-10-08T05:59:37;3.30;;;1.15;;
36923;SDS011;22841;50.252;18.688;2023-10-08T06:02:21;6.60;;;1.38;;
36923;SDS011;22841;50.252;18.688;2023-10-08T06:04:54;2.13;;;1.23;;
36923;SDS011;22841;50.252;18.688;2023-10-08T06:07:50;2.40;;;1.10;;
36923;SDS011;22841;50.252;18.688;2023-10-08T06:10:19;4.30;;;1.50;;
36923;SDS011;22841;50.252;18.688;2023-10-08T06:12:55;3.88;;;1.85;;
36923;SDS011;22841;50.252;18.688;2023-10-08T06:15:42;3.97;;;1.50;;
36923;SDS011;22841;50.252;18.688;2023-10-08T06:18:22;3.30;;;1.23;;
36923;SDS011;22841;50.252;18.688;2023-10-08T06:20:53;5.95;;;1.83;;
36923;SDS011;22841;50.252;18.688;2023-10-08T06:23:20;3.88;;;1.63;;
36923;SDS011;22841;50.252;18.688;2023-10-08T06:25:52;2.67;;;1.70;;
36923;SDS011;22841;50.252;18.688;2023-10-08T06:28:40;6.38;;;1.60;;
36923;SDS011;22841;50.252;18.688;2023-10-08T06:31:08;10.18;;;2.20;;
36923;SDS011;22841;50.252;18.688;2023-10-08T06:33:37;9.63;;;1.75;;
36923;SDS011;22841;50.252;18.688;2023-10-08T06:36:06;7.95;;;1.88;;
36923;SDS011;22841;50.252;18.688;2023-10-08T06:38:47;4.35;;;1.67;;
36923;SDS011;22841;50.252;18.688;2023-10-08T06:41:16;7.20;;;1.95;;
36923;SDS011;22841;50.252;18.688;2023-10-08T06:43:45;6.43;;;1.63;;
36923;SDS011;22841;50.252;18.688;2023-10-08T06:46:18;2.97;;;1.70;;
36923;SDS011;22841;50.252;18.688;2023-10-08T06:48:46;6.20;;;1.40;;
36923;SDS011;22841;50.252;18.688;2023-10-08T06:51:14;7.88;;;2.30;;
36923;SDS011;22841;50.252;18.688;2023-10-08T06:53:43;8.40;;;1.90;;
36923;SDS011;22841;50.252;18.688;2023-10-08T06:56:11;7.47;;;2.10;;
36923;SDS011;22841;50.252;18.688;2023-10-08T06:58:39;5.35;;;1.95;;
36923;SDS011;22841;50.252;18.688;2023-10-08T07:01:11;6.53;;;1.85;;
36923;SDS011;22841;50.252;18.688;2023-10-08T07:03:38;5.68;;;2.38;;
36923;SDS011;22841;50.252;18.688;2023-10-08T07:06:05;6.00;;;2.45;;
36923;SDS011;22841;50.252;18.688;2023-10-08T07:08:51;2.78;;;1.90;;
36923;SDS011;22841;50.252;18.688;2023-10-08T07:11:21;7.32;;;2.20;;
36923;SDS011;22841;50.252;18.688;2023-10-08T07:13:48;7.43;;;1.90;;
36923;SDS011;22841;50.252;18.688;2023-10-08T07:16:14;7.28;;;2.65;;
36923;SDS011;22841;50.252;18.688;2023-10-08T07:18:43;6.93;;;2.55;;
36923;SDS011;22841;50.252;18.688;2023-10-08T07:21:19;6.40;;;2.72;;
36923;SDS011;22841;50.252;18.688;2023-10-08T07:23:54;5.70;;;2.40;;
36923;SDS011;22841;50.252;18.688;2023-10-08T07:26:30;8.15;;;3.10;;
36923;SDS011;22841;50.252;18.688;2023-10-08T07:29:02;5.68;;;2.30;;
36923;SDS011;22841;50.252;18.688;2023-10-08T07:31:34;7.80;;;2.55;;
36923;SDS011;22841;50.252;18.688;2023-10-08T07:34:02;3.17;;;2.13;;
36923;SDS011;22841;50.252;18.688;2023-10-08T07:36:44;5.07;;;2.17;;
36923;SDS011;22841;50.252;18.688;2023-10-08T07:39:16;10.93;;;4.68;;
36923;SDS011;22841;50.252;18.688;2023-10-08T07:42:04;6.20;;;2.88;;
36923;SDS011;22841;50.252;18.688;2023-10-08T07:44:31;7.93;;;3.03;;
36923;SDS011;22841;50.252;18.688;2023-10-08T07:47:01;4.55;;;2.83;;
36923;SDS011;22841;50.252;18.688;2023-10-08T07:49:30;6.45;;;2.30;;
36923;SDS011;22841;50.252;18.688;2023-10-08T07:51:57;9.93;;;3.03;;
36923;SDS011;22841;50.252;18.688;2023-10-08T07:54:27;8.18;;;4.28;;
36923;SDS011;22841;50.252;18.688;2023-10-08T07:56:55;10.18;;;4.28;;
36923;SDS011;22841;50.252;18.688;2023-10-08T07:59:34;10.73;;;4.00;;
36923;SDS011;22841;50.252;18.688;2023-10-08T08:02:07;13.07;;;5.20;;
36923;SDS011;22841;50.252;18.688;2023-10-08T08:04:37;7.78;;;2.97;;
36923;SDS011;22841;50.252;18.688;2023-10-08T08:07:05;7.05;;;3.70;;
36923;SDS011;22841;50.252;18.688;2023-10-08T08:09:32;10.73;;;5.60;;
36923;SDS011;22841;50.252;18.688;2023-10-08T08:12:06;4.95;;;3.30;;
36923;SDS011;22841;50.252;18.688;2023-10-08T08:14:37;10.52;;;3.50;;
36923;SDS011;22841;50.252;18.688;2023-10-08T08:17:07;8.90;;;4.22;;
36923;SDS011;22841;50.252;18.688;2023-10-08T08:19:42;4.70;;;3.20;;
36923;SDS011;22841;50.252;18.688;2023-10-08T08:22:18;8.45;;;3.45;;
36923;SDS011;22841;50.252;18.688;2023-10-08T08:24:49;6.05;;;3.70;;
36923;SDS011;22841;50.252;18.688;2023-10-08T08:27:20;6.80;;;3.33;;
36923;SDS011;22841;50.252;18.688;2023-10-08T08:29:57;9.35;;;3.50;;
36923;SDS011;22841;50.252;18.688;2023-10-08T08:32:38;7.55;;;3.67;;
36923;SDS011;22841;50.252;18.688;2023-10-08T08:35:06;7.45;;;4.40;;
36923;SDS011;22841;50.252;18.688;2023-10-08T08:37:33;6.47;;;3.42;;
36923;SDS011;22841;50.252;18.688;2023-10-08T08:40:04;11.10;;;3.67;;
36923;SDS011;22841;50.252;18.688;2023-10-08T08:42:35;8.63;;;3.70;;
36923;SDS011;22841;50.252;18.688;2023-10-08T08:45:02;12.00;;;4.25;;
36923;SDS011;22841;50.252;18.688;2023-10-08T08:47:34;8.00;;;3.72;;
36923;SDS011;22841;50.252;18.688;2023-10-08T08:50:04;5.55;;;3.35;;
36923;SDS011;22841;50.252;18.688;2023-10-08T08:52:35;12.95;;;4.03;;
36923;SDS011;22841;50.252;18.688;2023-10-08T08:55:04;3.88;;;3.03;;
36923;SDS011;22841;50.252;18.688;2023-10-08T08:57:43;6.88;;;3.33;;
36923;SDS011;22841;50.252;18.688;2023-10-08T09:00:13;7.43;;;3.05;;
36923;SDS011;22841;50.252;18.688;2023-10-08T09:02:44;6.30;;;3.00;;
36923;SDS011;22841;50.252;18.688;2023-10-08T09:05:13;5.15;;;2.28;;
36923;SDS011;22841;50.252;18.688;2023-10-08T09:08:02;6.53;;;2.10;;
36923;SDS011;22841;50.252;18.688;2023-10-08T09:10:30;2.80;;;1.40;;
36923;SDS011;22841;50.252;18.688;2023-10-08T09:13:05;3.08;;;1.30;;
36923;SDS011;22841;50.252;18.688;2023-10-08T09:15:37;3.53;;;1.52;;
36923;SDS011;22841;50.252;18.688;2023-10-08T09:18:03;3.92;;;1.60;;
36923;SDS011;22841;50.252;18.688;2023-10-08T09:20:30;4.45;;;1.70;;
36923;SDS011;22841;50.252;18.688;2023-10-08T09:23:07;3.78;;;1.92;;
36923;SDS011;22841;50.252;18.688;2023-10-08T09:25:40;7.68;;;2.10;;
36923;SDS011;22841;50.252;18.688;2023-10-08T09:28:08;2.80;;;1.90;;
36923;SDS011;22841;50.252;18.688;2023-10-08T09:30:35;7.93;;;3.60;;
36923;SDS011;22841;50.252;18.688;2023-10-08T09:33:04;2.53;;;1.83;;
36923;SDS011;22841;50.252;18.688;2023-10-08T09:35:31;6.45;;;3.50;;
36923;SDS011;22841;50.252;18.688;2023-10-08T09:38:08;2.45;;;1.90;;
36923;SDS011;22841;50.252;18.688;2023-10-08T09:40:38;3.75;;;1.75;;
36923;SDS011;22841;50.252;18.688;2023-10-08T09:43:10;6.82;;;3.17;;
36923;SDS011;22841;50.252;18.688;2023-10-08T09:45:37;3.63;;;1.42;;
36923;SDS011;22841;50.252;18.688;2023-10-08T09:48:07;4.40;;;1.70;;
36923;SDS011;22841;50.252;18.688;2023-10-08T09:50:40;2.75;;;1.38;;
36923;SDS011;22841;50.252;18.688;2023-10-08T09:53:08;3.55;;;1.98;;
36923;SDS011;22841;50.252;18.688;2023-10-08T09:55:56;2.65;;;1.52;;
36923;SDS011;22841;50.252;18.688;2023-10-08T09:58:24;3.78;;;1.50;;
36923;SDS011;22841;50.252;18.688;2023-10-08T10:00:53;6.38;;;2.00;;
36923;SDS011;22841;50.252;18.688;2023-10-08T10:03:21;5.45;;;1.48;;
36923;SDS011;22841;50.252;18.688;2023-10-08T10:05:49;2.95;;;1.27;;
36923;SDS011;22841;50.252;18.688;2023-10-08T10:08:24;3.20;;;1.27;;
36923;SDS011;22841;50.252;18.688;2023-10-08T10:10:58;7.35;;;1.52;;
36923;SDS011;22841;50.252;18.688;2023-10-08T10:13:29;5.18;;;1.45;;
36923;SDS011;22841;50.252;18.688;2023-10-08T10:16:21;3.08;;;1.35;;
36923;SDS011;22841;50.252;18.688;2023-10-08T10:18:50;4.20;;;1.20;;
36923;SDS011;22841;50.252;18.688;2023-10-08T10:23:56;1.88;;;1.15;;
36923;SDS011;22841;50.252;18.688;2023-10-08T10:31:53;1.80;;;1.40;;
36923;SDS011;22841;50.252;18.688;2023-10-08T10:34:20;4.15;;;2.03;;
36923;SDS011;22841;50.252;18.688;2023-10-08T10:36:50;1.73;;;1.30;;
36923;SDS011;22841;50.252;18.688;2023-10-08T10:39:21;3.50;;;1.60;;
36923;SDS011;22841;50.252;18.688;2023-10-08T10:41:59;1.98;;;1.15;;
36923;SDS011;22841;50.252;18.688;2023-10-08T10:44:31;2.53;;;1.50;;
36923;SDS011;22841;50.252;18.688;2023-10-08T10:47:02;4.47;;;1.33;;
36923;SDS011;22841;50.252;18.688;2023-10-08T10:49:44;3.60;;;1.45;;
36923;SDS011;22841;50.252;18.688;2023-10-08T10:52:22;4.45;;;1.80;;
36923;SDS011;22841;50.252;18.688;2023-10-08T10:55:04;4.72;;;1.80;;
36923;SDS011;22841;50.252;18.688;2023-10-08T10:57:41;1.40;;;0.85;;
36923;SDS011;22841;50.252;18.688;2023-10-08T11:00:09;2.00;;;1.52;;
36923;SDS011;22841;50.252;18.688;2023-10-08T11:02:55;4.22;;;1.00;;
36923;SDS011;22841;50.252;18.688;2023-10-08T11:05:28;1.00;;;1.00;;
36923;SDS011;22841;50.252;18.688;2023-10-08T11:08:03;1.67;;;1.05;;
36923;SDS011;22841;50.252;18.688;2023-10-08T11:10:32;5.50;;;1.20;;
36923;SDS011;22841;50.252;18.688;2023-10-08T11:12:59;1.30;;;1.02;;
36923;SDS011;22841;50.252;18.688;2023-10-08T11:15:27;4.25;;;1.20;;
36923;SDS011;22841;50.252;18.688;2023-10-08T11:18:11;3.42;;;1.30;;
36923;SDS011;22841;50.252;18.688;2023-10-08T11:20:42;1.75;;;1.20;;
36923;SDS011;22841;50.252;18.688;2023-10-08T11:26:01;5.60;;;1.92;;
36923;SDS011;22841;50.252;18.688;2023-10-08T11:28:32;4.75;;;0.93;;
36923;SDS011;22841;50.252;18.688;2023-10-08T11:31:12;2.20;;;1.10;;
36923;SDS011;22841;50.252;18.688;2023-10-08T11:33:45;4.93;;;1.48;;
36923;SDS011;22841;50.252;18.688;2023-10-08T11:36:19;1.27;;;1.00;;
36923;SDS011;22841;50.252;18.688;2023-10-08T11:39:10;1.65;;;1.10;;
36923;SDS011;22841;50.252;18.688;2023-10-08T11:41:39;2.90;;;1.40;;
36923;SDS011;22841;50.252;18.688;2023-10-08T11:44:17;1.38;;;1.10;;
36923;SDS011;22841;50.252;18.688;2023-10-08T11:46:49;1.40;;;1.30;;
36923;SDS011;22841;50.252;18.688;2023-10-08T11:49:18;3.60;;;1.10;;
36923;SDS011;22841;50.252;18.688;2023-10-08T11:51:45;5.80;;;1.40;;
36923;SDS011;22841;50.252;18.688;2023-10-08T11:54:11;8.48;;;1.55;;
36923;SDS011;22841;50.252;18.688;2023-10-08T11:56:38;2.60;;;1.23;;
36923;SDS011;22841;50.252;18.688;2023-10-08T11:59:05;1.20;;;0.70;;
36923;SDS011;22841;50.252;18.688;2023-10-08T12:01:37;2.05;;;1.05;;
36923;SDS011;22841;50.252;18.688;2023-10-08T12:04:10;6.47;;;1.95;;
36923;SDS011;22841;50.252;18.688;2023-10-08T12:06:41;3.00;;;1.25;;
36923;SDS011;22841;50.252;18.688;2023-10-08T12:09:12;3.58;;;1.50;;
36923;SDS011;22841;50.252;18.688;2023-10-08T12:11:39;1.85;;;1.15;;
36923;SDS011;22841;50.252;18.688;2023-10-08T12:14:06;0.85;;;0.80;;
36923;SDS011;22841;50.252;18.688;2023-10-08T12:16:32;2.55;;;1.30;;
36923;SDS011;22841;50.252;18.688;2023-10-08T12:19:02;1.75;;;0.90;;
36923;SDS011;22841;50.252;18.688;2023-10-08T12:21:41;1.83;;;0.90;;
36923;SDS011;22841;50.252;18.688;2023-10-08T12:24:07;4.85;;;1.20;;
36923;SDS011;22841;50.252;18.688;2023-10-08T12:26:38;3.15;;;1.35;;
36923;SDS011;22841;50.252;18.688;2023-10-08T12:29:11;3.78;;;1.52;;
36923;SDS011;22841;50.252;18.688;2023-10-08T12:31:40;3.83;;;0.98;;
36923;SDS011;22841;50.252;18.688;2023-10-08T12:34:06;1.20;;;0.90;;
36923;SDS011;22841;50.252;18.688;2023-10-08T12:36:37;2.35;;;1.02;;
36923;SDS011;22841;50.252;18.688;2023-10-08T12:39:03;2.88;;;1.30;;
36923;SDS011;22841;50.252;18.688;2023-10-08T12:41:36;1.48;;;0.73;;
36923;SDS011;22841;50.252;18.688;2023-10-08T12:44:06;4.50;;;1.10;;
36923;SDS011;22841;50.252;18.688;2023-10-08T12:46:35;2.10;;;1.02;;
36923;SDS011;22841;50.252;18.688;2023-10-08T12:49:02;2.72;;;1.40;;
36923;SDS011;22841;50.252;18.688;2023-10-08T12:51:28;1.48;;;0.90;;
36923;SDS011;22841;50.252;18.688;2023-10-08T12:53:59;3.20;;;1.20;;
36923;SDS011;22841;50.252;18.688;2023-10-08T12:56:47;3.08;;;1.10;;
36923;SDS011;22841;50.252;18.688;2023-10-08T12:59:20;2.50;;;1.65;;
36923;SDS011;22841;50.252;18.688;2023-10-08T13:01:49;3.88;;;1.23;;
36923;SDS011;22841;50.252;18.688;2023-10-08T13:04:19;2.78;;;1.13;;
36923;SDS011;22841;50.252;18.688;2023-10-08T13:06:58;3.78;;;0.82;;
36923;SDS011;22841;50.252;18.688;2023-10-08T13:09:26;1.85;;;1.20;;
36923;SDS011;22841;50.252;18.688;2023-10-08T13:11:56;1.23;;;1.00;;
36923;SDS011;22841;50.252;18.688;2023-10-08T13:14:25;2.15;;;0.88;;
36923;SDS011;22841;50.252;18.688;2023-10-08T13:16:51;3.13;;;1.50;;
36923;SDS011;22841;50.252;18.688;2023-10-08T13:19:19;0.70;;;0.60;;
36923;SDS011;22841;50.252;18.688;2023-10-08T13:21:48;1.83;;;1.20;;
36923;SDS011;22841;50.252;18.688;2023-10-08T13:24:17;2.13;;;1.13;;
36923;SDS011;22841;50.252;18.688;2023-10-08T13:26:44;2.40;;;1.08;;
36923;SDS011;22841;50.252;18.688;2023-10-08T13:29:13;2.80;;;1.00;;
36923;SDS011;22841;50.252;18.688;2023-10-08T13:31:40;1.10;;;1.00;;
36923;SDS011;22841;50.252;18.688;2023-10-08T13:34:06;3.13;;;1.23;;
36923;SDS011;22841;50.252;18.688;2023-10-08T13:36:37;2.05;;;1.25;;
36923;SDS011;22841;50.252;18.688;2023-10-08T13:39:05;1.98;;;1.27;;
36923;SDS011;22841;50.252;18.688;2023-10-08T13:41:35;2.85;;;1.08;;
36923;SDS011;22841;50.252;18.688;2023-10-08T13:44:04;2.13;;;1.30;;
36923;SDS011;22841;50.252;18.688;2023-10-08T13:46:31;3.00;;;1.08;;
36923;SDS011;22841;50.252;18.688;2023-10-08T13:49:01;3.10;;;1.20;;
36923;SDS011;22841;50.252;18.688;2023-10-08T13:51:31;3.47;;;1.73;;
36923;SDS011;22841;50.252;18.688;2023-10-08T13:54:00;9.55;;;5.38;;
36923;SDS011;22841;50.252;18.688;2023-10-08T13:56:28;8.23;;;5.18;;
36923;SDS011;22841;50.252;18.688;2023-10-08T13:59:00;9.10;;;6.28;;
36923;SDS011;22841;50.252;18.688;2023-10-08T14:01:37;14.23;;;7.28;;
36923;SDS011;22841;50.252;18.688;2023-10-08T14:04:06;15.48;;;11.15;;
36923;SDS011;22841;50.252;18.688;2023-10-08T14:06:35;7.68;;;4.50;;
36923;SDS011;22841;50.252;18.688;2023-10-08T14:09:03;3.22;;;2.53;;
36923;SDS011;22841;50.252;18.688;2023-10-08T14:11:37;2.08;;;1.05;;
36923;SDS011;22841;50.252;18.688;2023-10-08T14:14:04;22.55;;;15.13;;
36923;SDS011;22841;50.252;18.688;2023-10-08T14:16:36;6.82;;;2.20;;
36923;SDS011;22841;50.252;18.688;2023-10-08T14:19:07;32.75;;;15.75;;
36923;SDS011;22841;50.252;18.688;2023-10-08T14:21:38;30.95;;;15.68;;
36923;SDS011;22841;50.252;18.688;2023-10-08T14:24:18;7.78;;;3.67;;
36923;SDS011;22841;50.252;18.688;2023-10-08T14:26:45;8.13;;;5.05;;
36923;SDS011;22841;50.252;18.688;2023-10-08T14:29:18;4.78;;;2.60;;
36923;SDS011;22841;50.252;18.688;2023-10-08T14:31:46;2.70;;;1.60;;
36923;SDS011;22841;50.252;18.688;2023-10-08T14:34:17;3.17;;;1.77;;
36923;SDS011;22841;50.252;18.688;2023-10-08T14:36:43;2.60;;;1.95;;
36923;SDS011;22841;50.252;18.688;2023-10-08T14:39:29;2.22;;;1.30;;
36923;SDS011;22841;50.252;18.688;2023-10-08T14:42:14;3.03;;;1.42;;
36923;SDS011;22841;50.252;18.688;2023-10-08T14:44:59;2.80;;;1.83;;
36923;SDS011;22841;50.252;18.688;2023-10-08T14:47:26;2.55;;;1.88;;
36923;SDS011;22841;50.252;18.688;2023-10-08T14:49:52;3.67;;;1.30;;
36923;SDS011;22841;50.252;18.688;2023-10-08T14:52:18;3.38;;;1.23;;
36923;SDS011;22841;50.252;18.688;2023-10-08T14:54:45;2.20;;;1.10;;
36923;SDS011;22841;50.252;18.688;2023-10-08T14:57:12;2.55;;;1.10;;
36923;SDS011;22841;50.252;18.688;2023-10-08T14:59:43;1.42;;;0.80;;
36923;SDS011;22841;50.252;18.688;2023-10-08T15:02:09;4.38;;;1.15;;
36923;SDS011;22841;50.252;18.688;2023-10-08T15:04:36;2.45;;;1.17;;
36923;SDS011;22841;50.252;18.688;2023-10-08T15:07:05;2.10;;;1.60;;
36923;SDS011;22841;50.252;18.688;2023-10-08T15:09:37;6.05;;;2.30;;
36923;SDS011;22841;50.252;18.688;2023-10-08T15:12:05;6.82;;;3.45;;
36923;SDS011;22841;50.252;18.688;2023-10-08T15:14:35;5.63;;;3.08;;
36923;SDS011;22841;50.252;18.688;2023-10-08T15:17:01;4.78;;;2.15;;